Time;durP1;ratioP1;P1;durP2;ratioP2;P2;SDS_P1;SDS_P2;PMS_P1;PMS_P2;Temp;Humidity;BMP_temperature;BMP_pressure;BME280_temperature;BME280_humidity;BME280_pressure;Samples;Min_cycle;Max_cycle;Signal;HPM_P1;HPM_P2
2023/03/24 00:01:32;;;;;;;105.18;45.55;;;;;;;5.76;97.02;101114.13;4938496;29;20036;-92
2023/03/24 00:03:59;;;;;;;97.57;43.63;;;;;;;5.75;97.28;101113.31;4947683;29;20150;-93
2023/03/24 00:06:33;;;;;;;101.07;43.15;;;;;;;5.40;98.34;101076.00;4939424;29;20048;-92
2023/03/24 00:09:02;;;;;;;86.28;40.53;;;;;;;5.45;98.55;101073.84;4919923;29;20071;-93
2023/03/24 00:11:33;;;;;;;87.40;39.55;;;;;;;5.54;98.70;101088.28;4924497;29;20465;-89
2023/03/24 00:14:03;;;;;;;81.13;38.47;;;;;;;5.59;98.06;101084.28;4928723;29;20041;-90
2023/03/24 00:16:42;;;;;;;84.10;39.33;;;;;;;5.38;98.08;101057.44;4935152;29;20114;-91
2023/03/24 00:19:14;;;;;;;92.53;39.15;;;;;;;5.48;97.27;101060.28;4928259;29;20043;-92
2023/03/24 00:22:06;;;;;;;78.68;39.03;;;;;;;5.46;97.33;101055.06;4934229;29;20036;-93
2023/03/24 00:24:33;;;;;;;75.90;38.00;;;;;;;5.63;96.67;101076.91;4919985;29;20843;-88
2023/03/24 00:27:18;;;;;;;79.55;36.28;;;;;;;5.71;96.50;101086.03;4927705;28;20066;-93
2023/03/24 00:29:52;;;;;;;73.43;36.88;;;;;;;5.31;97.26;101052.72;4948133;28;20166;-94
2023/03/24 00:32:29;;;;;;;79.05;37.45;;;;;;;5.37;97.40;101049.59;4948916;28;20075;-90
2023/03/24 00:35:19;;;;;;;88.07;39.40;;;;;;;5.58;97.51;101095.94;4946164;28;20131;-93
2023/03/24 00:37:53;;;;;;;91.13;40.03;;;;;;;5.31;98.18;101060.72;4956170;28;20032;-92
2023/03/24 00:40:23;;;;;;;92.35;41.15;;;;;;;5.35;99.14;101097.69;4944244;28;20075;-93
2023/03/24 00:43:14;;;;;;;91.82;41.65;;;;;;;5.45;99.04;101089.84;4937841;29;20051;-93
2023/03/24 00:45:51;;;;;;;91.00;41.85;;;;;;;5.45;98.60;101090.69;4953723;28;20063;-92
2023/03/24 00:48:43;;;;;;;96.63;44.33;;;;;;;5.52;98.43;101088.41;4965284;29;20070;-92
2023/03/24 00:51:27;;;;;;;100.07;44.78;;;;;;;5.49;98.19;101091.31;4958021;28;20105;-91
2023/03/24 00:53:57;;;;;;;102.78;45.22;;;;;;;5.20;98.81;101049.06;4955160;28;20037;-92
2023/03/24 00:56:39;;;;;;;108.47;46.90;;;;;;;5.47;98.52;101079.91;4934274;29;20623;-92
2023/03/24 00:59:13;;;;;;;102.75;44.83;;;;;;;5.44;98.92;101080.16;4952409;29;20048;-91
2023/03/24 01:01:46;;;;;;;102.25;45.40;;;;;;;5.28;98.12;101040.47;4947446;29;20047;-91
2023/03/24 01:04:19;;;;;;;107.80;48.47;;;;;;;5.56;97.89;101081.03;4953852;29;20047;-92
2023/03/24 01:06:57;;;;;;;109.55;47.90;;;;;;;5.52;98.65;101079.53;4951405;28;20043;-90
2023/03/24 01:09:28;;;;;;;110.47;47.17;;;;;;;5.35;98.74;101044.34;4942202;28;20043;-91
2023/03/24 01:11:59;;;;;;;109.95;47.47;;;;;;;5.31;98.27;101028.72;4947751;28;20066;-91
2023/03/24 01:14:28;;;;;;;114.93;49.60;;;;;;;5.61;98.42;101074.34;4951755;28;20145;-91
2023/03/24 01:17:02;;;;;;;114.82;50.10;;;;;;;5.53;98.46;101066.09;4941615;29;20047;-92
2023/03/24 01:19:35;;;;;;;119.07;48.83;;;;;;;5.53;98.32;101059.94;4967235;28;20057;-89
2023/03/24 01:22:05;;;;;;;118.90;49.40;;;;;;;5.39;98.61;101023.66;4966339;28;20087;-92
2023/03/24 01:24:32;;;;;;;119.20;49.13;;;;;;;5.61;98.75;101068.16;4953433;28;20055;-91
2023/03/24 01:27:12;;;;;;;121.55;48.75;;;;;;;5.41;98.81;101035.06;4950135;28;20047;-93
2023/03/24 01:30:01;;;;;;;117.00;48.47;;;;;;;5.49;98.81;101037.97;4950057;28;20440;-92
2023/03/24 01:33:02;;;;;;;132.13;58.40;;;;;;;5.67;98.20;101068.56;4940929;29;20039;-91
2023/03/24 01:35:29;;;;;;;106.80;47.78;;;;;;;5.78;97.36;101072.19;4946576;28;20047;-93
2023/03/24 01:38:06;;;;;;;107.07;48.13;;;;;;;5.71;97.25;101074.47;4947839;28;20055;-90
2023/03/24 01:40:48;;;;;;;113.07;44.90;;;;;;;5.65;97.84;101062.47;4939514;28;20052;-91
2023/03/24 01:43:19;;;;;;;99.88;44.15;;;;;;;5.56;97.15;101028.50;4956994;29;20040;-91
2023/03/24 01:46:06;;;;;;;92.80;44.28;;;;;;;5.82;96.44;101066.50;4935926;29;20055;-92
2023/03/24 01:49:18;;;;;;;99.60;45.40;;;;;;;5.83;96.54;101072.66;4940275;29;20071;-93
2023/03/24 01:51:52;;;;;;;98.30;44.08;;;;;;;5.54;96.72;101030.44;4954869;29;20035;-91
2023/03/24 01:54:30;;;;;;;92.03;45.13;;;;;;;5.75;95.86;101069.78;4940582;29;20047;-90
2023/03/24 01:57:30;;;;;;;95.05;43.20;;;;;;;5.66;96.19;101066.00;4948729;29;20439;-91
2023/03/24 02:00:26;;;;;;;95.53;42.97;;;;;;;5.59;96.84;101081.63;4953051;28;20064;-90
2023/03/24 02:03:02;;;;;;;94.38;42.85;;;;;;;5.43;96.71;101049.97;4970491;28;20039;-91
2023/03/24 02:05:31;;;;;;;90.50;44.05;;;;;;;5.44;96.31;101050.81;4962413;28;20118;-93
2023/03/24 02:08:29;;;;;;;86.25;43.65;;;;;;;5.47;96.77;101071.91;4957209;29;20046;-93
2023/03/24 02:11:10;;;;;;;94.65;45.75;;;;;;;5.44;96.77;101069.47;4955221;28;21977;-89
2023/03/24 02:14:22;;;;;;;100.97;48.40;;;;;;;5.33;97.25;101069.44;4947877;28;20047;-91
2023/03/24 02:17:56;;;;;;;283.17;48.33;;;;;;;4.85;98.13;101051.72;4963475;29;20055;-91
2023/03/24 02:21:14;;;;;;;255.68;51.20;;;;;;;4.92;98.98;101081.41;4918935;29;20032;-90
2023/03/24 02:24:19;;;;;;;249.45;50.80;;;;;;;4.83;99.18;101091.78;4901951;29;20408;-91
2023/03/24 02:27:05;;;;;;;;;;;;;;;4.77;99.62;101091.38;4913327;29;20051;-92
2023/03/24 02:30:09;;;;;;;199.10;48.93;;;;;;;4.52;100.00;101090.53;4906408;29;19919;-93
2023/03/24 02:33:17;;;;;;;234.38;49.40;;;;;;;4.55;100.00;101092.13;4936252;29;20072;-94
2023/03/24 02:36:20;;;;;;;260.63;48.15;;;;;;;4.60;100.00;101098.78;4916645;29;20530;-94
2023/03/24 02:39:32;;;;;;;138.10;46.95;;;;;;;4.65;99.80;101103.78;4922267;29;20111;-95
2023/03/24 02:42:48;;;;;;;141.07;43.10;;;;;;;4.61;98.98;101088.97;4928859;29;20052;-93
2023/03/24 02:46:12;;;;;;;84.55;41.28;;;;;;;4.69;98.39;101102.59;4888198;29;20032;-93
2023/03/24 02:49:09;;;;;;;70.80;39.42;;;;;;;4.72;97.62;101107.69;4902102;29;20164;-91
2023/03/24 02:52:04;;;;;;;67.82;39.88;;;;;;;4.72;97.10;101110.38;4890490;29;20025;-92
2023/03/24 02:55:00;;;;;;;75.18;39.13;;;;;;;4.55;97.01;101094.78;4896851;29;20126;-93
2023/03/24 02:58:03;;;;;;;79.30;38.97;;;;;;;4.49;96.54;101098.72;4891894;29;20076;-93
2023/03/24 03:00:52;;;;;;;76.47;39.38;;;;;;;4.31;97.06;101114.22;4949158;28;20111;-90
2023/03/24 03:03:50;;;;;;;74.38;38.88;;;;;;;4.11;96.82;101074.84;4957923;28;20086;-90
2023/03/24 03:06:35;;;;;;;71.30;38.65;;;;;;;4.20;96.61;101085.69;4922106;29;20055;-91
2023/03/24 03:09:11;;;;;;;67.83;38.30;;;;;;;4.21;97.04;101098.06;4941574;28;20485;-92
2023/03/24 03:11:47;;;;;;;66.38;37.38;;;;;;;4.02;96.79;101082.50;4935547;29;20055;-92
2023/03/24 03:15:05;;;;;;;80.90;38.78;;;;;;;4.26;96.77;101103.06;4923318;29;20057;-88
2023/03/24 03:17:41;;;;;;;70.53;37.70;;;;;;;4.31;97.11;101116.88;4929350;29;20063;-90
2023/03/24 03:20:29;;;;;;;72.40;35.90;;;;;;;4.01;96.82;101083.50;4947777;28;20059;-89
2023/03/24 03:23:07;;;;;;;64.38;35.80;;;;;;;4.05;98.25;101120.50;4935221;28;20188;-92
2023/03/24 03:25:41;;;;;;;77.13;35.35;;;;;;;3.80;98.13;101080.53;4916805;29;20048;-91
2023/03/24 03:28:11;;;;;;;64.35;36.42;;;;;;;3.86;98.01;101092.53;4919783;28;20148;-89
2023/03/24 03:30:41;;;;;;;61.83;35.40;;;;;;;3.98;98.16;101094.34;4962349;28;20067;-90
2023/03/24 03:33:43;;;;;;;63.00;35.42;;;;;;;3.78;98.18;101078.94;4947369;28;20042;-90
2023/03/24 03:36:31;;;;;;;76.05;36.33;;;;;;;3.97;98.17;101100.63;4955759;28;20051;-90
2023/03/24 03:39:00;;;;;;;71.68;36.00;;;;;;;3.92;98.73;101093.94;4962344;28;20039;-91
2023/03/24 03:41:27;;;;;;;110.78;40.25;;;;;;;3.75;99.53;101066.69;4961230;28;20077;-89
2023/03/24 03:43:54;;;;;;;130.90;42.67;;;;;;;3.72;100.00;101064.28;4926088;28;20135;-92
2023/03/24 03:46:23;;;;;;;127.82;42.30;;;;;;;3.91;100.00;101079.78;4939036;28;20052;-90
2023/03/24 03:48:53;;;;;;;80.68;41.30;;;;;;;3.93;99.97;101061.91;4950537;28;20047;-90
2023/03/24 03:51:25;;;;;;;68.95;37.60;;;;;;;4.05;99.81;101070.84;4945044;28;20046;-91
2023/03/24 03:53:55;;;;;;;67.95;37.88;;;;;;;3.99;100.00;101077.41;4947017;28;20046;-89
2023/03/24 03:56:45;;;;;;;63.15;36.58;;;;;;;3.96;99.95;101056.38;4936843;28;20072;-90
2023/03/24 03:59:32;;;;;;;63.05;34.00;;;;;;;3.90;100.00;101056.78;4957977;29;20050;-92
2023/03/24 04:02:11;;;;;;;59.53;33.55;;;;;;;4.04;100.00;101062.94;4959125;28;20448;-90
2023/03/24 04:05:04;;;;;;;69.53;35.90;;;;;;;4.06;100.00;101088.47;4949767;29;20039;-90
2023/03/24 04:07:39;;;;;;;60.58;33.50;;;;;;;4.18;100.00;101086.75;4952778;28;20055;-89
2023/03/24 04:10:25;;;;;;;59.08;33.30;;;;;;;4.22;100.00;101074.94;4954888;29;20054;-94
2023/03/24 04:13:23;;;;;;;66.80;32.72;;;;;;;4.31;100.00;101081.41;4961844;28;20054;-91
2023/03/24 04:16:21;;;;;;;61.25;31.95;;;;;;;4.11;100.00;101045.59;4954728;29;20044;-92
2023/03/24 04:19:14;;;;;;;65.45;32.83;;;;;;;4.56;100.00;101077.81;4879059;28;20458;-91
2023/03/24 04:22:15;;;;;;;77.60;36.22;;;;;;;4.44;100.00;101056.44;4967101;28;20023;-92
2023/03/24 04:24:58;;;;;;;87.20;40.97;;;;;;;4.65;100.00;101063.84;4955700;28;20087;-92
2023/03/24 04:28:08;;;;;;;75.32;38.70;;;;;;;4.90;100.00;101078.88;4929504;29;20058;-92
2023/03/24 04:30:56;;;;;;;75.65;34.72;;;;;;;5.21;100.00;101097.88;4930430;29;20198;-90
2023/03/24 04:33:39;;;;;;;78.82;36.33;;;;;;;5.40;99.15;101098.19;4924979;29;20039;-91
2023/03/24 04:36:26;;;;;;;74.22;37.13;;;;;;;5.16;99.14;101068.91;4914040;29;20051;-90
2023/03/24 04:38:52;;;;;;;73.50;36.72;;;;;;;5.31;98.59;101071.38;4902629;29;20055;-92
2023/03/24 04:41:20;;;;;;;68.07;37.13;;;;;;;5.39;98.13;101074.31;4896444;29;20048;-91
2023/03/24 04:43:46;;;;;;;67.45;35.67;;;;;;;5.49;97.23;101075.31;4921306;29;20060;-91
2023/03/24 04:46:16;;;;;;;65.60;37.22;;;;;;;5.67;97.09;101099.72;4920971;29;20047;-92
2023/03/24 04:48:47;;;;;;;65.38;35.78;;;;;;;5.65;96.71;101094.50;4899555;29;20048;-92
2023/03/24 04:51:17;;;;;;;63.35;35.42;;;;;;;5.71;96.06;101070.00;4932052;29;20092;-91
2023/03/24 04:53:46;;;;;;;82.40;37.92;;;;;;;6.06;94.86;101084.25;4925631;29;20134;-90
2023/03/24 04:56:29;;;;;;;70.22;36.65;;;;;;;6.13;94.71;101070.31;4924748;29;20048;-89
2023/03/24 04:59:00;;;;;;;62.60;35.25;;;;;;;6.47;93.93;101091.63;4900765;29;20083;-91
2023/03/24 05:01:28;;;;;;;57.97;35.20;;;;;;;6.46;93.08;101078.38;4932786;29;20098;-86
2023/03/24 05:07:28;;;;;;;62.55;33.08;;;;;;;6.60;91.08;101109.31;4936967;29;20042;-88
2023/03/24 05:10:25;;;;;;;62.35;34.42;;;;;;;6.82;91.40;101119.13;4898632;29;20118;-89
2023/03/24 05:16:12;;;;;;;59.40;35.35;;;;;;;7.00;90.04;101112.28;4917267;29;20480;-87
2023/03/24 05:22:00;;;;;;;65.30;36.20;;;;;;;7.37;89.30;101114.53;4941367;29;20400;-86
2023/03/24 05:24:26;;;;;;;74.35;37.42;;;;;;;7.40;88.45;101115.13;4950042;28;20028;-90
2023/03/24 05:26:51;;;;;;;68.00;38.63;;;;;;;7.48;88.18;101127.88;4921280;29;20042;-90
2023/03/24 05:29:17;;;;;;;61.10;38.75;;;;;;;7.38;87.46;101119.78;4932584;29;20456;-89
2023/03/24 05:31:43;;;;;;;67.32;41.35;;;;;;;7.54;86.27;101129.19;4937566;29;20067;-90
2023/03/24 05:34:10;;;;;;;89.82;43.47;;;;;;;7.72;85.50;101140.97;4937734;29;20126;-89
2023/03/24 05:36:37;;;;;;;91.82;44.45;;;;;;;7.69;84.88;101138.56;4953098;29;20474;-88
2023/03/24 05:39:02;;;;;;;;;;;;;;;7.72;84.28;101148.16;4953671;28;20568;-89
2023/03/24 05:41:28;;;;;;;117.43;45.30;;;;;;;7.39;83.78;101121.44;4953356;29;20039;-88
2023/03/24 05:44:06;;;;;;;119.55;46.25;;;;;;;7.56;83.57;101127.19;4922370;29;20058;-89
2023/03/24 05:46:38;;;;;;;122.00;47.30;;;;;;;7.74;83.12;101140.88;4935127;29;20073;-90
2023/03/24 05:49:04;;;;;;;113.15;46.05;;;;;;;8.08;82.35;101162.91;4918479;29;20127;-90
2023/03/24 05:51:31;;;;;;;97.57;44.45;;;;;;;8.37;81.04;101138.94;4930456;29;20130;-91
2023/03/24 05:53:57;;;;;;;89.93;41.75;;;;;;;8.21;80.50;101147.47;4919717;29;20035;-89
2023/03/24 05:56:23;;;;;;;85.90;40.80;;;;;;;8.85;79.61;101124.88;4919202;29;20181;-89
2023/03/24 05:58:50;;;;;;;76.72;36.20;;;;;;;8.90;77.88;101119.09;4946781;29;20094;-89
2023/03/24 06:01:17;;;;;;;68.30;33.13;;;;;;;9.27;76.10;101151.47;4958177;29;20073;-90
2023/03/24 06:03:42;;;;;;;58.28;33.92;;;;;;;9.54;75.50;101143.69;4947125;29;20027;-88
2023/03/24 06:06:08;;;;;;;49.85;31.45;;;;;;;10.38;74.20;101140.28;4934494;29;20063;-90
2023/03/24 06:08:34;;;;;;;56.08;30.20;;;;;;;11.35;70.73;101142.34;4937851;29;20098;-91
2023/03/24 06:11:02;;;;;;;45.35;28.17;;;;;;;12.11;67.85;101149.88;4967405;28;20552;-91
2023/03/24 06:13:39;;;;;;;54.90;34.30;;;;;;;12.91;64.58;101148.72;4954044;29;20055;-89
2023/03/24 06:16:06;;;;;;;49.92;27.95;;;;;;;13.53;62.23;101135.66;4953111;28;20047;-93
2023/03/24 06:18:32;;;;;;;47.63;28.35;;;;;;;14.22;60.38;101141.50;4922883;29;20035;-92
2023/03/24 06:20:58;;;;;;;41.15;26.77;;;;;;;14.58;57.85;101114.00;4932750;29;20040;-91
2023/03/24 06:23:26;;;;;;;52.08;26.77;;;;;;;15.15;57.58;101129.09;4947879;29;20058;-90
2023/03/24 06:25:57;;;;;;;46.33;26.90;;;;;;;15.46;55.96;101114.66;4929988;29;20091;-91
2023/03/24 06:28:24;;;;;;;47.92;25.58;;;;;;;15.67;53.61;101122.94;4948631;29;20051;-90
2023/03/24 06:30:50;;;;;;;44.58;25.25;;;;;;;16.19;53.81;101143.78;4933373;29;20056;-90
2023/03/24 06:33:16;;;;;;;;;;;;;;;16.39;52.29;101148.69;4914412;29;20043;-90
2023/03/24 06:35:42;;;;;;;33.75;23.00;;;;;;;16.56;51.36;101142.03;4944709;28;19938;-90
2023/03/24 06:38:08;;;;;;;40.95;23.10;;;;;;;16.77;51.03;101137.69;4933848;29;20043;-91
2023/03/24 06:40:33;;;;;;;;;;;;;;;16.63;50.99;101144.84;4935146;29;20051;-91
2023/03/24 06:42:59;;;;;;;;;;;;;;;16.43;51.29;101136.41;4957320;29;19914;-90
2023/03/24 06:45:25;;;;;;;32.20;22.13;;;;;;;16.12;52.04;101114.91;4949436;29;19918;-91
2023/03/24 06:47:56;;;;;;;;;;;;;;;16.67;51.84;101141.53;4953335;29;20495;-91
2023/03/24 06:50:25;;;;;;;35.40;21.67;;;;;;;16.77;51.08;101111.38;4938163;29;19914;-90
2023/03/24 06:52:52;;;;;;;40.05;22.50;;;;;;;16.96;50.46;101109.13;4923384;29;20122;-92
2023/03/24 06:55:18;;;;;;;43.47;22.88;;;;;;;17.42;50.05;101134.06;4953656;28;20074;-93
2023/03/24 06:57:44;;;;;;;;;;;;;;;17.47;50.58;101137.03;4936218;29;20043;-92
2023/03/24 07:00:10;;;;;;;37.63;22.17;;;;;;;17.91;49.32;101116.06;4942050;29;19915;-90
2023/03/24 07:02:37;;;;;;;34.97;22.27;;;;;;;18.38;48.41;101122.66;4941862;29;20047;-91
2023/03/24 07:05:07;;;;;;;35.58;22.23;;;;;;;18.64;47.63;101116.50;4937210;29;20067;-89
2023/03/24 07:07:32;;;;;;;34.60;21.92;;;;;;;18.94;46.65;101111.63;4923500;29;20032;-90
2023/03/24 07:10:03;;;;;;;32.00;20.83;;;;;;;19.12;45.59;101102.00;4926844;29;20123;-92
2023/03/24 07:12:34;;;;;;;28.20;20.50;;;;;;;19.63;44.66;101127.88;4939390;29;20048;-90
2023/03/24 07:15:02;;;;;;;36.38;19.30;;;;;;;19.35;44.29;101117.97;4943370;29;20130;-92
2023/03/24 07:17:28;;;;;;;38.83;19.23;;;;;;;19.58;43.42;101131.22;4922616;29;20048;-92
2023/03/24 07:19:53;;;;;;;22.40;17.25;;;;;;;19.65;42.57;101112.13;4935262;29;20521;-91
2023/03/24 07:22:19;;;;;;;30.55;19.27;;;;;;;19.40;43.55;101116.28;4937923;29;20051;-89
2023/03/24 07:24:45;;;;;;;37.58;19.40;;;;;;;19.44;44.26;101099.53;4934162;29;20118;-91
2023/03/24 07:27:19;;;;;;;31.98;19.23;;;;;;;19.59;43.55;101127.44;4947079;29;20120;-92
2023/03/24 07:29:44;;;;;;;36.92;20.63;;;;;;;20.08;42.63;101123.44;4951339;29;20047;-90
2023/03/24 07:32:11;;;;;;;42.30;21.85;;;;;;;20.64;42.37;101125.63;4920097;29;20409;-89
2023/03/24 07:34:38;;;;;;;55.72;22.63;;;;;;;20.98;42.21;101111.84;4906208;29;20042;-90
2023/03/24 07:37:03;;;;;;;42.53;25.60;;;;;;;21.45;41.16;101117.88;4940364;29;20047;-88
2023/03/24 07:39:29;;;;;;;40.58;23.67;;;;;;;21.98;40.81;101103.69;4928965;29;20465;-90
2023/03/24 07:41:56;;;;;;;51.72;25.73;;;;;;;22.52;38.91;101085.66;4920803;29;20459;-90
2023/03/24 07:44:21;;;;;;;50.58;24.45;;;;;;;23.43;37.92;101123.22;4944326;29;20050;-89
2023/03/24 07:46:48;;;;;;;47.38;24.92;;;;;;;23.79;36.49;101116.75;4908700;29;20162;-92
2023/03/24 07:49:14;;;;;;;41.78;24.02;;;;;;;23.97;35.47;101083.66;4936120;29;20185;-91
2023/03/24 07:51:39;;;;;;;47.35;24.35;;;;;;;24.50;35.13;101089.25;4921135;29;20130;-90
2023/03/24 07:54:05;;;;;;;43.55;23.30;;;;;;;25.29;33.46;101089.41;4920337;29;20414;-90
2023/03/24 07:56:31;;;;;;;36.08;20.73;;;;;;;26.02;31.41;101095.81;4938425;29;20036;-91
2023/03/24 07:58:58;;;;;;;42.28;21.15;;;;;;;26.31;30.96;101081.88;4921139;29;20043;-93
2023/03/24 08:01:26;;;;;;;42.72;24.33;;;;;;;27.30;29.73;101107.56;4944970;28;20047;-91
2023/03/24 08:03:54;;;;;;;36.22;23.63;;;;;;;27.00;29.19;101099.81;4930853;29;20039;-93
2023/03/24 08:06:20;;;;;;;38.80;27.30;;;;;;;27.21;29.29;101117.47;4951737;28;20053;-91
2023/03/24 08:08:49;;;;;;;43.10;28.35;;;;;;;26.50;30.28;101099.78;4918878;29;20036;-91
2023/03/24 08:11:15;;;;;;;45.95;28.52;;;;;;;27.75;28.91;101122.88;4934611;29;20133;-91
2023/03/24 08:13:40;;;;;;;47.83;30.45;;;;;;;27.64;28.59;101083.31;4940866;29;20411;-92
2023/03/24 08:16:06;;;;;;;44.65;29.52;;;;;;;26.89;29.33;101098.88;4948582;28;20365;-92
2023/03/24 08:18:33;;;;;;;44.53;29.23;;;;;;;26.27;30.72;101122.06;4947632;29;20047;-90
2023/03/24 08:21:01;;;;;;;38.78;28.60;;;;;;;27.39;29.27;101119.81;4943513;29;20111;-93
2023/03/24 08:23:29;;;;;;;37.38;26.05;;;;;;;28.25;28.18;101115.22;4939799;29;20039;-93
2023/03/24 08:25:55;;;;;;;34.20;23.67;;;;;;;28.08;27.63;101104.34;4946094;28;20102;-92
2023/03/24 08:28:21;;;;;;;28.67;21.73;;;;;;;28.60;26.39;101106.28;4938983;29;20047;-92
2023/03/24 08:30:47;;;;;;;27.17;20.95;;;;;;;28.69;26.29;101106.59;4946375;28;20476;-92
2023/03/24 08:33:15;;;;;;;23.77;19.27;;;;;;;28.82;26.05;101114.38;4964389;28;20058;-91
2023/03/24 08:35:44;;;;;;;21.25;17.42;;;;;;;29.25;25.45;101095.69;4943997;28;20130;-91
2023/03/24 08:38:10;;;;;;;22.75;16.85;;;;;;;28.94;25.92;101075.38;4920216;29;20043;-91
2023/03/24 08:40:37;;;;;;;20.50;16.05;;;;;;;27.55;28.09;101102.28;4958113;28;20070;-92
2023/03/24 08:43:07;;;;;;;18.05;15.63;;;;;;;26.73;28.72;101079.38;4940002;29;20067;-92
2023/03/24 08:45:32;;;;;;;18.98;14.05;;;;;;;27.49;27.27;101086.78;4935921;29;20039;-92
2023/03/24 08:48:00;;;;;;;22.25;15.68;;;;;;;26.85;28.08;101100.47;4956780;28;20054;-93
2023/03/24 08:50:30;;;;;;;15.77;14.05;;;;;;;27.42;28.21;101099.13;4940122;29;20047;-91
2023/03/24 08:52:56;;;;;;;18.60;13.70;;;;;;;28.90;26.57;101100.03;4927883;29;20035;-92
2023/03/24 08:55:24;;;;;;;16.98;13.25;;;;;;;28.63;25.81;101102.97;4933120;29;20589;-94
2023/03/24 08:57:50;;;;;;;16.58;13.23;;;;;;;28.86;25.50;101074.00;4952378;29;20117;-93
2023/03/24 09:00:19;;;;;;;17.92;14.00;;;;;;;30.29;24.68;101104.47;4931953;29;20138;-92
2023/03/24 09:02:49;;;;;;;19.50;13.95;;;;;;;29.57;24.44;101106.50;4951338;29;20039;-94
2023/03/24 09:05:17;;;;;;;15.57;13.13;;;;;;;30.81;23.39;101082.88;4925215;29;20060;-91
2023/03/24 09:07:43;;;;;;;15.98;12.73;;;;;;;32.34;21.68;101091.03;4955163;28;20039;-91
2023/03/24 09:10:10;;;;;;;15.20;12.85;;;;;;;31.94;21.92;101093.13;4950703;28;20189;-91
2023/03/24 09:12:38;;;;;;;18.33;12.52;;;;;;;32.33;21.65;101089.34;4956994;29;20039;-92
2023/03/24 09:15:05;;;;;;;14.10;12.63;;;;;;;30.75;22.61;101100.66;4948071;28;20127;-90
2023/03/24 09:17:31;;;;;;;18.35;12.20;;;;;;;31.36;23.02;101104.19;4944257;29;20044;-92
2023/03/24 09:19:57;;;;;;;15.00;11.48;;;;;;;32.30;21.55;101089.97;4954599;28;20114;-91
2023/03/24 09:22:23;;;;;;;15.65;11.55;;;;;;;32.59;21.11;101093.50;4922768;29;20050;-91
2023/03/24 09:24:49;;;;;;;12.63;11.02;;;;;;;31.41;21.86;101088.31;4950263;29;20131;-92
2023/03/24 09:27:16;;;;;;;12.52;11.30;;;;;;;32.24;21.26;101066.94;4974728;28;20054;-92
2023/03/24 09:29:46;;;;;;;13.88;11.77;;;;;;;32.53;20.84;101066.06;4948991;29;20468;-93
2023/03/24 09:32:12;;;;;;;14.88;11.25;;;;;;;33.33;19.82;101069.88;4943574;29;20040;-89
2023/03/24 09:34:38;;;;;;;13.15;11.25;;;;;;;33.27;19.59;101060.78;4939556;29;20102;-91
2023/03/24 09:37:04;;;;;;;14.13;11.40;;;;;;;32.56;20.23;101062.66;4956142;29;20511;-92
2023/03/24 09:39:31;;;;;;;13.93;11.52;;;;;;;33.51;20.31;101073.75;4937526;28;20043;-93
2023/03/24 09:42:04;;;;;;;13.07;11.43;;;;;;;32.38;20.61;101047.56;4952684;29;20389;-92
2023/03/24 09:44:39;;;;;;;16.17;12.85;;;;;;;30.47;23.00;101061.41;4943179;29;20054;-92
2023/03/24 09:47:16;;;;;;;13.88;12.40;;;;;;;31.21;22.58;101080.13;4933886;29;20134;-92
2023/03/24 09:49:47;;;;;;;13.00;11.57;;;;;;;32.28;21.52;101075.50;4957036;29;20069;-91
2023/03/24 09:52:18;;;;;;;13.30;11.40;;;;;;;32.91;20.91;101054.91;4956421;28;20050;-92
2023/03/24 09:54:53;;;;;;;13.30;11.55;;;;;;;33.18;20.33;101062.63;4951210;29;20044;-92
2023/03/24 09:57:39;;;;;;;13.07;11.40;;;;;;;34.00;19.01;101041.66;4961337;29;20048;-94
2023/03/24 10:00:28;;;;;;;15.80;11.40;;;;;;;34.40;18.34;101039.16;4957979;29;20027;-92
2023/03/24 10:02:58;;;;;;;14.40;11.77;;;;;;;33.53;19.20;101035.25;4957413;28;20047;-93
2023/03/24 10:05:34;;;;;;;15.93;11.73;;;;;;;33.34;19.31;101064.00;4973816;28;20073;-93
2023/03/24 10:08:34;;;;;;;16.88;11.07;;;;;;;32.79;19.51;101050.63;4948541;28;20079;-93
2023/03/24 10:11:18;;;;;;;14.77;11.77;;;;;;;32.12;20.34;101055.41;4963293;29;20508;-92
2023/03/24 10:13:50;;;;;;;;;;;;;;;31.77;20.59;101054.63;4943223;29;20171;-93
2023/03/24 10:16:35;;;;;;;14.15;11.65;;;;;;;31.79;20.16;101051.56;4952748;28;19915;-92
2023/03/24 10:19:29;;;;;;;16.38;11.40;;;;;;;31.67;20.43;101046.41;4957607;28;20122;-93
2023/03/24 10:22:43;;;;;;;14.98;11.52;;;;;;;31.57;20.03;101036.25;4921504;29;20099;-91
2023/03/24 10:25:33;;;;;;;13.52;11.68;;;;;;;32.70;19.81;101048.84;4951891;29;20103;-94
2023/03/24 10:28:06;;;;;;;17.02;11.98;;;;;;;33.11;19.24;101031.53;4936451;29;20143;-92
2023/03/24 10:30:35;;;;;;;;;;;;;;;34.58;18.06;101049.34;4941906;29;20066;-92
2023/03/24 10:33:04;;;;;;;13.20;11.32;;;;;;;34.70;17.65;101046.06;4958677;29;19914;-92
2023/03/24 10:35:35;;;;;;;14.85;11.70;;;;;;;33.45;18.61;101047.94;4924431;29;20118;-92
2023/03/24 10:38:03;;;;;;;12.60;11.30;;;;;;;33.81;18.77;101048.13;4931230;29;20043;-92
2023/03/24 10:40:33;;;;;;;14.25;10.85;;;;;;;34.23;18.61;101035.03;4951539;28;20399;-91
2023/03/24 10:43:02;;;;;;;13.55;10.10;;;;;;;33.57;19.23;101016.81;4949016;29;20035;-93
2023/03/24 10:45:33;;;;;;;14.43;10.77;;;;;;;32.26;20.94;101022.13;4922255;29;20469;-91
2023/03/24 10:48:00;;;;;;;12.90;10.43;;;;;;;33.28;20.54;101047.69;4942810;29;20054;-93
2023/03/24 10:50:30;;;;;;;12.40;10.68;;;;;;;33.93;20.08;101044.03;4938274;29;20103;-92
2023/03/24 10:52:56;;;;;;;14.90;11.52;;;;;;;31.95;21.74;101025.25;4927458;29;20039;-92
2023/03/24 10:55:30;;;;;;;16.85;13.00;;;;;;;30.03;23.91;101042.69;4950403;28;20047;-92
2023/03/24 10:57:59;;;;;;;19.60;14.57;;;;;;;29.82;24.25;101016.16;4948877;29;20094;-89
2023/03/24 11:00:30;;;;;;;19.05;15.73;;;;;;;28.75;25.60;101030.81;4949980;28;20499;-92
2023/03/24 11:03:07;;;;;;;19.63;15.18;;;;;;;27.41;27.63;101022.94;4926392;29;20126;-93
2023/03/24 11:05:35;;;;;;;20.30;14.57;;;;;;;27.08;28.30;101003.59;4927831;29;20057;-91
2023/03/24 11:08:36;;;;;;;17.13;13.30;;;;;;;27.96;27.59;101000.38;4953230;29;20047;-93
2023/03/24 11:11:31;;;;;;;18.38;13.10;;;;;;;26.26;28.47;101008.22;4938019;29;20056;-92
2023/03/24 11:14:03;;;;;;;17.75;13.50;;;;;;;26.23;28.98;101033.56;4936734;29;20054;-91
2023/03/24 11:16:36;;;;;;;17.65;13.35;;;;;;;26.92;28.04;100988.00;4941257;29;20130;-92
2023/03/24 11:19:11;;;;;;;18.42;13.57;;;;;;;27.01;28.12;100994.69;4941835;29;20079;-92
2023/03/24 11:21:45;;;;;;;16.33;12.75;;;;;;;24.95;30.24;100986.72;4927394;29;20479;-92
2023/03/24 11:24:15;;;;;;;18.15;13.18;;;;;;;24.67;31.66;101023.31;4945190;29;20059;-90
2023/03/24 11:26:45;;;;;;;14.80;11.95;;;;;;;25.20;30.35;101016.63;4939193;29;20043;-91
2023/03/24 11:29:14;;;;;;;18.20;12.13;;;;;;;25.45;30.34;101019.78;4944353;28;20044;-93
2023/03/24 11:31:40;;;;;;;17.00;11.07;;;;;;;26.44;28.65;101001.56;4944469;28;20078;-92
2023/03/24 11:34:23;;;;;;;13.32;11.10;;;;;;;26.28;28.18;100994.22;4942933;29;20062;-93
2023/03/24 11:36:57;;;;;;;14.57;11.10;;;;;;;25.68;29.46;100984.84;4940915;29;20043;-92
2023/03/24 11:39:23;;;;;;;17.48;11.43;;;;;;;26.31;28.73;101001.94;4958187;28;20036;-93
2023/03/24 11:42:28;;;;;;;15.18;10.23;;;;;;;25.80;29.87;100996.63;4956035;29;20086;-94
2023/03/24 11:45:00;;;;;;;13.52;9.90;;;;;;;25.23;30.80;100978.41;4954674;28;21462;-91
2023/03/24 11:47:31;;;;;;;12.68;9.40;;;;;;;23.97;32.56;100989.47;4952740;29;20040;-93
2023/03/24 11:50:18;;;;;;;12.63;9.65;;;;;;;23.09;34.83;100999.50;4930425;29;20039;-93
2023/03/24 11:52:51;;;;;;;10.40;8.48;;;;;;;21.91;37.00;100979.75;4948708;29;20178;-92
2023/03/24 11:55:17;;;;;;;12.40;9.20;;;;;;;22.25;36.99;100993.94;4922432;29;20191;-93
2023/03/24 11:57:55;;;;;;;14.40;8.70;;;;;;;22.34;36.55;100992.53;4954154;29;20036;-91
2023/03/24 12:00:30;;;;;;;11.98;9.27;;;;;;;22.02;37.02;101002.81;4924344;29;20035;-91
2023/03/24 12:03:14;;;;;;;18.08;9.07;;;;;;;21.96;37.07;101003.72;4936530;29;20356;-92